sensor_id;sensor_type;location;lat;lon;timestamp;P1;durP1;ratioP1;P2;durP2;ratioP2
2644;SDS011;15377;48.540;9.268;2023-04-15T00:01:59;8.00;;;3.67;;
2644;SDS011;15377;48.540;9.268;2023-04-15T00:04:24;11.10;;;4.23;;
2644;SDS011;15377;48.540;9.268;2023-04-15T00:06:50;7.90;;;3.83;;
2644;SDS011;15377;48.540;9.268;2023-04-15T00:09:17;8.07;;;3.42;;
2644;SDS011;15377;48.540;9.268;2023-04-15T00:11:43;7.88;;;3.90;;
2644;SDS011;15377;48.540;9.268;2023-04-15T00:14:09;10.07;;;5.07;;
2644;SDS011;15377;48.540;9.268;2023-04-15T00:16:34;8.00;;;4.23;;
2644;SDS011;15377;48.540;9.268;2023-04-15T00:19:00;7.80;;;3.93;;
2644;SDS011;15377;48.540;9.268;2023-04-15T00:21:25;9.93;;;4.60;;
2644;SDS011;15377;48.540;9.268;2023-04-15T00:23:52;12.82;;;4.65;;
2644;SDS011;15377;48.540;9.268;2023-04-15T00:26:18;7.77;;;3.90;;
2644;SDS011;15377;48.540;9.268;2023-04-15T00:28:44;9.52;;;4.32;;
2644;SDS011;15377;48.540;9.268;2023-04-15T00:31:12;10.75;;;4.63;;
2644;SDS011;15377;48.540;9.268;2023-04-15T00:33:38;7.70;;;4.33;;
2644;SDS011;15377;48.540;9.268;2023-04-15T00:36:05;7.43;;;4.13;;
2644;SDS011;15377;48.540;9.268;2023-04-15T00:38:31;9.90;;;4.60;;
2644;SDS011;15377;48.540;9.268;2023-04-15T00:40:56;9.23;;;4.30;;
2644;SDS011;15377;48.540;9.268;2023-04-15T00:43:22;9.77;;;4.60;;
2644;SDS011;15377;48.540;9.268;2023-04-15T00:45:47;8.07;;;4.43;;
2644;SDS011;15377;48.540;9.268;2023-04-15T00:48:15;9.60;;;4.60;;
2644;SDS011;15377;48.540;9.268;2023-04-15T00:50:41;9.00;;;4.30;;
2644;SDS011;15377;48.540;9.268;2023-04-15T00:53:06;7.33;;;3.63;;
2644;SDS011;15377;48.540;9.268;2023-04-15T00:55:32;9.97;;;4.40;;
2644;SDS011;15377;48.540;9.268;2023-04-15T00:57:57;10.47;;;4.97;;
2644;SDS011;15377;48.540;9.268;2023-04-15T01:00:23;12.13;;;5.03;;
2644;SDS011;15377;48.540;9.268;2023-04-15T01:02:48;17.03;;;4.67;;
2644;SDS011;15377;48.540;9.268;2023-04-15T01:05:14;9.83;;;5.10;;
2644;SDS011;15377;48.540;9.268;2023-04-15T01:07:42;11.50;;;4.75;;
2644;SDS011;15377;48.540;9.268;2023-04-15T01:10:08;13.13;;;4.50;;
2644;SDS011;15377;48.540;9.268;2023-04-15T01:12:33;14.43;;;4.50;;
2644;SDS011;15377;48.540;9.268;2023-04-15T01:14:59;10.30;;;4.50;;
2644;SDS011;15377;48.540;9.268;2023-04-15T01:17:26;12.57;;;4.78;;
2644;SDS011;15377;48.540;9.268;2023-04-15T01:19:52;10.52;;;4.55;;
2644;SDS011;15377;48.540;9.268;2023-04-15T01:22:19;10.68;;;4.88;;
2644;SDS011;15377;48.540;9.268;2023-04-15T01:24:48;13.73;;;4.40;;
2644;SDS011;15377;48.540;9.268;2023-04-15T01:27:19;8.65;;;4.38;;
2644;SDS011;15377;48.540;9.268;2023-04-15T01:29:45;9.00;;;3.83;;
2644;SDS011;15377;48.540;9.268;2023-04-15T01:32:11;8.30;;;4.00;;
2644;SDS011;15377;48.540;9.268;2023-04-15T01:34:36;13.40;;;4.00;;
2644;SDS011;15377;48.540;9.268;2023-04-15T01:37:01;8.27;;;4.27;;
2644;SDS011;15377;48.540;9.268;2023-04-15T01:39:27;9.07;;;4.30;;
2644;SDS011;15377;48.540;9.268;2023-04-15T01:41:52;10.60;;;4.10;;
2644;SDS011;15377;48.540;9.268;2023-04-15T01:44:17;10.83;;;4.50;;
2644;SDS011;15377;48.540;9.268;2023-04-15T01:46:43;7.50;;;3.70;;
2644;SDS011;15377;48.540;9.268;2023-04-15T01:49:08;7.97;;;3.63;;
2644;SDS011;15377;48.540;9.268;2023-04-15T01:51:34;9.53;;;4.23;;
2644;SDS011;15377;48.540;9.268;2023-04-15T01:53:59;8.77;;;4.00;;
2644;SDS011;15377;48.540;9.268;2023-04-15T01:56:24;8.53;;;4.17;;
2644;SDS011;15377;48.540;9.268;2023-04-15T01:58:50;7.63;;;3.67;;
2644;SDS011;15377;48.540;9.268;2023-04-15T02:01:15;8.80;;;4.10;;
2644;SDS011;15377;48.540;9.268;2023-04-15T02:03:43;9.18;;;5.03;;
2644;SDS011;15377;48.540;9.268;2023-04-15T02:06:09;10.55;;;3.95;;
2644;SDS011;15377;48.540;9.268;2023-04-15T02:08:35;8.17;;;4.47;;
2644;SDS011;15377;48.540;9.268;2023-04-15T02:11:00;8.93;;;4.40;;
2644;SDS011;15377;48.540;9.268;2023-04-15T02:13:25;8.77;;;4.23;;
2644;SDS011;15377;48.540;9.268;2023-04-15T02:15:51;11.83;;;4.60;;
2644;SDS011;15377;48.540;9.268;2023-04-15T02:18:17;10.13;;;4.37;;
2644;SDS011;15377;48.540;9.268;2023-04-15T02:20:42;9.93;;;4.70;;
2644;SDS011;15377;48.540;9.268;2023-04-15T02:23:08;8.13;;;4.23;;
2644;SDS011;15377;48.540;9.268;2023-04-15T02:25:35;11.48;;;5.43;;
2644;SDS011;15377;48.540;9.268;2023-04-15T02:28:01;9.73;;;5.95;;
2644;SDS011;15377;48.540;9.268;2023-04-15T02:30:26;14.00;;;4.47;;
2644;SDS011;15377;48.540;9.268;2023-04-15T02:32:51;10.00;;;4.90;;
2644;SDS011;15377;48.540;9.268;2023-04-15T02:35:17;10.37;;;4.63;;
2644;SDS011;15377;48.540;9.268;2023-04-15T02:37:45;10.38;;;4.90;;
2644;SDS011;15377;48.540;9.268;2023-04-15T02:40:11;9.20;;;4.80;;
2644;SDS011;15377;48.540;9.268;2023-04-15T02:42:40;9.00;;;5.20;;
2644;SDS011;15377;48.540;9.268;2023-04-15T02:45:06;15.57;;;6.28;;
2644;SDS011;15377;48.540;9.268;2023-04-15T02:47:33;10.97;;;6.17;;
2644;SDS011;15377;48.540;9.268;2023-04-15T02:49:58;11.98;;;5.97;;
2644;SDS011;15377;48.540;9.268;2023-04-15T02:52:25;9.43;;;5.60;;
2644;SDS011;15377;48.540;9.268;2023-04-15T02:54:51;9.40;;;4.97;;
2644;SDS011;15377;48.540;9.268;2023-04-15T02:57:17;10.73;;;5.40;;
2644;SDS011;15377;48.540;9.268;2023-04-15T02:59:43;15.10;;;7.03;;
2644;SDS011;15377;48.540;9.268;2023-04-15T03:02:08;12.47;;;5.60;;
2644;SDS011;15377;48.540;9.268;2023-04-15T03:04:33;10.97;;;5.30;;
2644;SDS011;15377;48.540;9.268;2023-04-15T03:07:00;11.30;;;6.53;;
2644;SDS011;15377;48.540;9.268;2023-04-15T03:09:26;12.23;;;5.30;;
2644;SDS011;15377;48.540;9.268;2023-04-15T03:11:51;9.37;;;5.40;;
2644;SDS011;15377;48.540;9.268;2023-04-15T03:14:18;9.90;;;5.25;;
2644;SDS011;15377;48.540;9.268;2023-04-15T03:16:44;10.63;;;5.10;;
2644;SDS011;15377;48.540;9.268;2023-04-15T03:19:09;18.60;;;6.10;;
2644;SDS011;15377;48.540;9.268;2023-04-15T03:21:35;10.47;;;5.50;;
2644;SDS011;15377;48.540;9.268;2023-04-15T03:24:00;10.10;;;5.10;;
2644;SDS011;15377;48.540;9.268;2023-04-15T03:26:27;10.97;;;5.60;;
2644;SDS011;15377;48.540;9.268;2023-04-15T03:28:53;10.65;;;5.25;;
2644;SDS011;15377;48.540;9.268;2023-04-15T03:31:18;8.20;;;4.67;;
2644;SDS011;15377;48.540;9.268;2023-04-15T03:33:44;10.37;;;5.27;;
2644;SDS011;15377;48.540;9.268;2023-04-15T03:36:09;8.47;;;4.13;;
2644;SDS011;15377;48.540;9.268;2023-04-15T03:38:35;10.17;;;4.57;;
2644;SDS011;15377;48.540;9.268;2023-04-15T03:41:00;9.13;;;4.50;;
2644;SDS011;15377;48.540;9.268;2023-04-15T03:43:26;11.07;;;4.97;;
2644;SDS011;15377;48.540;9.268;2023-04-15T03:45:51;9.90;;;5.23;;
2644;SDS011;15377;48.540;9.268;2023-04-15T03:48:16;11.90;;;5.20;;
2644;SDS011;15377;48.540;9.268;2023-04-15T03:50:42;12.50;;;5.60;;
2644;SDS011;15377;48.540;9.268;2023-04-15T03:53:07;10.53;;;5.23;;
2644;SDS011;15377;48.540;9.268;2023-04-15T03:55:32;10.67;;;5.87;;
2644;SDS011;15377;48.540;9.268;2023-04-15T03:57:58;12.77;;;6.50;;
2644;SDS011;15377;48.540;9.268;2023-04-15T04:00:23;11.40;;;5.43;;
2644;SDS011;15377;48.540;9.268;2023-04-15T04:02:48;10.60;;;5.70;;
2644;SDS011;15377;48.540;9.268;2023-04-15T04:05:14;9.97;;;4.90;;
2644;SDS011;15377;48.540;9.268;2023-04-15T04:07:39;9.00;;;4.47;;
2644;SDS011;15377;48.540;9.268;2023-04-15T04:10:05;13.73;;;5.90;;
2644;SDS011;15377;48.540;9.268;2023-04-15T04:12:31;10.02;;;5.28;;
2644;SDS011;15377;48.540;9.268;2023-04-15T04:14:56;16.97;;;5.23;;
2644;SDS011;15377;48.540;9.268;2023-04-15T04:17:21;14.27;;;5.20;;
2644;SDS011;15377;48.540;9.268;2023-04-15T04:19:47;8.20;;;4.20;;
2644;SDS011;15377;48.540;9.268;2023-04-15T04:22:12;10.53;;;4.93;;
2644;SDS011;15377;48.540;9.268;2023-04-15T04:24:37;9.90;;;5.30;;
2644;SDS011;15377;48.540;9.268;2023-04-15T04:27:03;11.23;;;5.23;;
2644;SDS011;15377;48.540;9.268;2023-04-15T04:29:29;12.35;;;6.00;;
2644;SDS011;15377;48.540;9.268;2023-04-15T04:31:54;10.30;;;5.27;;
2644;SDS011;15377;48.540;9.268;2023-04-15T04:34:20;17.97;;;6.97;;
2644;SDS011;15377;48.540;9.268;2023-04-15T04:36:45;9.70;;;5.80;;
2644;SDS011;15377;48.540;9.268;2023-04-15T04:39:11;11.23;;;4.90;;
2644;SDS011;15377;48.540;9.268;2023-04-15T04:41:36;11.07;;;5.50;;
2644;SDS011;15377;48.540;9.268;2023-04-15T04:44:01;14.87;;;5.57;;
2644;SDS011;15377;48.540;9.268;2023-04-15T04:46:27;9.27;;;4.97;;
2644;SDS011;15377;48.540;9.268;2023-04-15T04:48:52;13.23;;;5.40;;
2644;SDS011;15377;48.540;9.268;2023-04-15T04:51:18;9.00;;;4.77;;
2644;SDS011;15377;48.540;9.268;2023-04-15T04:53:43;11.97;;;5.83;;
2644;SDS011;15377;48.540;9.268;2023-04-15T04:56:09;12.50;;;6.10;;
2644;SDS011;15377;48.540;9.268;2023-04-15T04:58:34;9.30;;;5.20;;
2644;SDS011;15377;48.540;9.268;2023-04-15T05:01:00;10.17;;;5.50;;
2644;SDS011;15377;48.540;9.268;2023-04-15T05:03:26;9.10;;;4.80;;
2644;SDS011;15377;48.540;9.268;2023-04-15T05:05:52;11.90;;;5.87;;
2644;SDS011;15377;48.540;9.268;2023-04-15T05:08:18;12.60;;;6.22;;
2644;SDS011;15377;48.540;9.268;2023-04-15T05:10:44;11.07;;;5.53;;
2644;SDS011;15377;48.540;9.268;2023-04-15T05:13:09;11.03;;;5.40;;
2644;SDS011;15377;48.540;9.268;2023-04-15T05:15:35;12.97;;;5.83;;
2644;SDS011;15377;48.540;9.268;2023-04-15T05:18:03;10.07;;;6.20;;
2644;SDS011;15377;48.540;9.268;2023-04-15T05:20:29;16.27;;;6.80;;
2644;SDS011;15377;48.540;9.268;2023-04-15T05:22:54;10.93;;;6.83;;
2644;SDS011;15377;48.540;9.268;2023-04-15T05:25:19;12.50;;;6.50;;
2644;SDS011;15377;48.540;9.268;2023-04-15T05:27:45;13.07;;;6.90;;
2644;SDS011;15377;48.540;9.268;2023-04-15T05:30:10;15.87;;;8.00;;
2644;SDS011;15377;48.540;9.268;2023-04-15T05:32:36;13.33;;;7.20;;
2644;SDS011;15377;48.540;9.268;2023-04-15T05:35:01;16.97;;;6.00;;
2644;SDS011;15377;48.540;9.268;2023-04-15T05:37:27;14.57;;;6.50;;
2644;SDS011;15377;48.540;9.268;2023-04-15T05:39:52;10.10;;;5.97;;
2644;SDS011;15377;48.540;9.268;2023-04-15T05:42:17;12.87;;;6.97;;
2644;SDS011;15377;48.540;9.268;2023-04-15T05:44:43;11.83;;;6.30;;
2644;SDS011;15377;48.540;9.268;2023-04-15T05:47:08;11.43;;;5.87;;
2644;SDS011;15377;48.540;9.268;2023-04-15T05:49:34;10.45;;;5.63;;
2644;SDS011;15377;48.540;9.268;2023-04-15T05:52:00;10.80;;;5.73;;
2644;SDS011;15377;48.540;9.268;2023-04-15T05:54:26;14.17;;;6.47;;
2644;SDS011;15377;48.540;9.268;2023-04-15T05:56:52;12.00;;;6.33;;
2644;SDS011;15377;48.540;9.268;2023-04-15T05:59:17;12.73;;;5.50;;
2644;SDS011;15377;48.540;9.268;2023-04-15T06:01:42;10.00;;;5.33;;
2644;SDS011;15377;48.540;9.268;2023-04-15T06:04:09;12.23;;;6.28;;
2644;SDS011;15377;48.540;9.268;2023-04-15T06:06:35;10.50;;;5.38;;
2644;SDS011;15377;48.540;9.268;2023-04-15T06:09:01;11.00;;;5.87;;
2644;SDS011;15377;48.540;9.268;2023-04-15T06:11:26;11.40;;;6.23;;
2644;SDS011;15377;48.540;9.268;2023-04-15T06:13:52;9.50;;;5.07;;
2644;SDS011;15377;48.540;9.268;2023-04-15T06:16:17;10.50;;;6.00;;
2644;SDS011;15377;48.540;9.268;2023-04-15T06:18:42;16.70;;;5.90;;
2644;SDS011;15377;48.540;9.268;2023-04-15T06:21:08;17.20;;;5.83;;
2644;SDS011;15377;48.540;9.268;2023-04-15T06:23:35;12.00;;;6.50;;
2644;SDS011;15377;48.540;9.268;2023-04-15T06:26:01;11.55;;;6.28;;
2644;SDS011;15377;48.540;9.268;2023-04-15T06:28:26;12.17;;;5.20;;
2644;SDS011;15377;48.540;9.268;2023-04-15T06:30:52;9.97;;;6.07;;
2644;SDS011;15377;48.540;9.268;2023-04-15T06:33:21;14.13;;;6.38;;
2644;SDS011;15377;48.540;9.268;2023-04-15T06:35:46;11.00;;;5.90;;
2644;SDS011;15377;48.540;9.268;2023-04-15T06:38:13;13.75;;;5.95;;
2644;SDS011;15377;48.540;9.268;2023-04-15T06:40:38;11.23;;;5.53;;
2644;SDS011;15377;48.540;9.268;2023-04-15T06:43:04;13.73;;;5.93;;
2644;SDS011;15377;48.540;9.268;2023-04-15T06:45:30;11.70;;;5.87;;
2644;SDS011;15377;48.540;9.268;2023-04-15T06:47:56;10.10;;;5.40;;
2644;SDS011;15377;48.540;9.268;2023-04-15T06:50:21;9.87;;;5.60;;
2644;SDS011;15377;48.540;9.268;2023-04-15T06:52:47;10.53;;;5.20;;
2644;SDS011;15377;48.540;9.268;2023-04-15T06:55:12;8.83;;;5.40;;
2644;SDS011;15377;48.540;9.268;2023-04-15T06:57:38;11.63;;;4.95;;
2644;SDS011;15377;48.540;9.268;2023-04-15T07:00:04;10.80;;;5.23;;
2644;SDS011;15377;48.540;9.268;2023-04-15T07:02:29;10.57;;;5.23;;
2644;SDS011;15377;48.540;9.268;2023-04-15T07:04:55;10.43;;;4.63;;
2644;SDS011;15377;48.540;9.268;2023-04-15T07:07:20;8.93;;;5.00;;
2644;SDS011;15377;48.540;9.268;2023-04-15T07:09:46;8.87;;;4.50;;
2644;SDS011;15377;48.540;9.268;2023-04-15T07:12:11;9.93;;;4.60;;
2644;SDS011;15377;48.540;9.268;2023-04-15T07:14:37;8.27;;;4.30;;
2644;SDS011;15377;48.540;9.268;2023-04-15T07:17:02;8.73;;;5.00;;
2644;SDS011;15377;48.540;9.268;2023-04-15T07:19:27;10.03;;;4.80;;
2644;SDS011;15377;48.540;9.268;2023-04-15T07:21:53;9.20;;;4.97;;
2644;SDS011;15377;48.540;9.268;2023-04-15T07:24:18;8.87;;;4.70;;
2644;SDS011;15377;48.540;9.268;2023-04-15T07:26:44;10.00;;;4.47;;
2644;SDS011;15377;48.540;9.268;2023-04-15T07:29:10;9.93;;;4.73;;
2644;SDS011;15377;48.540;9.268;2023-04-15T07:31:36;12.17;;;4.37;;
2644;SDS011;15377;48.540;9.268;2023-04-15T07:34:02;9.40;;;4.73;;
2644;SDS011;15377;48.540;9.268;2023-04-15T07:36:27;10.20;;;5.10;;
2644;SDS011;15377;48.540;9.268;2023-04-15T07:38:53;12.27;;;5.20;;
2644;SDS011;15377;48.540;9.268;2023-04-15T07:41:19;7.80;;;5.07;;
2644;SDS011;15377;48.540;9.268;2023-04-15T07:43:45;8.73;;;4.90;;
2644;SDS011;15377;48.540;9.268;2023-04-15T07:46:11;8.10;;;4.63;;
2644;SDS011;15377;48.540;9.268;2023-04-15T07:48:36;7.90;;;4.70;;
2644;SDS011;15377;48.540;9.268;2023-04-15T07:51:02;9.63;;;5.33;;
2644;SDS011;15377;48.540;9.268;2023-04-15T07:53:27;12.57;;;5.67;;
2644;SDS011;15377;48.540;9.268;2023-04-15T07:55:53;9.77;;;4.83;;
2644;SDS011;15377;48.540;9.268;2023-04-15T07:58:18;8.97;;;4.40;;
2644;SDS011;15377;48.540;9.268;2023-04-15T08:00:43;10.07;;;4.73;;
2644;SDS011;15377;48.540;9.268;2023-04-15T08:03:09;9.30;;;4.63;;
2644;SDS011;15377;48.540;9.268;2023-04-15T08:05:34;13.60;;;5.07;;
2644;SDS011;15377;48.540;9.268;2023-04-15T08:08:00;10.00;;;4.60;;
2644;SDS011;15377;48.540;9.268;2023-04-15T08:10:25;9.63;;;4.60;;
2644;SDS011;15377;48.540;9.268;2023-04-15T08:12:51;8.70;;;4.17;;
2644;SDS011;15377;48.540;9.268;2023-04-15T08:15:18;9.40;;;4.30;;
2644;SDS011;15377;48.540;9.268;2023-04-15T08:17:44;9.97;;;4.03;;
2644;SDS011;15377;48.540;9.268;2023-04-15T08:20:10;11.20;;;4.20;;
2644;SDS011;15377;48.540;9.268;2023-04-15T08:22:36;8.10;;;4.73;;
2644;SDS011;15377;48.540;9.268;2023-04-15T08:25:01;7.57;;;4.10;;
2644;SDS011;15377;48.540;9.268;2023-04-15T08:27:33;9.70;;;4.67;;
2644;SDS011;15377;48.540;9.268;2023-04-15T08:29:58;13.73;;;4.33;;
2644;SDS011;15377;48.540;9.268;2023-04-15T08:32:24;7.50;;;3.80;;
2644;SDS011;15377;48.540;9.268;2023-04-15T08:34:50;8.93;;;4.30;;
2644;SDS011;15377;48.540;9.268;2023-04-15T08:37:16;11.63;;;4.50;;
2644;SDS011;15377;48.540;9.268;2023-04-15T08:39:41;7.70;;;4.80;;
2644;SDS011;15377;48.540;9.268;2023-04-15T08:42:10;10.03;;;4.27;;
2644;SDS011;15377;48.540;9.268;2023-04-15T08:44:40;9.67;;;4.60;;
2644;SDS011;15377;48.540;9.268;2023-04-15T08:47:07;9.67;;;4.80;;
2644;SDS011;15377;48.540;9.268;2023-04-15T08:49:34;10.13;;;4.73;;
2644;SDS011;15377;48.540;9.268;2023-04-15T08:52:03;9.53;;;4.97;;
2644;SDS011;15377;48.540;9.268;2023-04-15T08:54:28;9.77;;;4.60;;
2644;SDS011;15377;48.540;9.268;2023-04-15T08:56:56;12.63;;;5.73;;
2644;SDS011;15377;48.540;9.268;2023-04-15T08:59:22;10.67;;;5.40;;
2644;SDS011;15377;48.540;9.268;2023-04-15T09:01:50;9.73;;;5.10;;
2644;SDS011;15377;48.540;9.268;2023-04-15T09:04:17;10.17;;;5.03;;
2644;SDS011;15377;48.540;9.268;2023-04-15T09:06:42;10.57;;;5.40;;
2644;SDS011;15377;48.540;9.268;2023-04-15T09:09:08;11.10;;;4.63;;
2644;SDS011;15377;48.540;9.268;2023-04-15T09:11:33;10.50;;;4.97;;
2644;SDS011;15377;48.540;9.268;2023-04-15T09:13:59;8.10;;;4.43;;
2644;SDS011;15377;48.540;9.268;2023-04-15T09:16:28;10.93;;;4.77;;
2644;SDS011;15377;48.540;9.268;2023-04-15T09:18:53;10.50;;;5.10;;
2644;SDS011;15377;48.540;9.268;2023-04-15T09:21:19;9.97;;;4.43;;
2644;SDS011;15377;48.540;9.268;2023-04-15T09:23:57;10.57;;;4.67;;
2644;SDS011;15377;48.540;9.268;2023-04-15T09:26:31;10.17;;;5.13;;
2644;SDS011;15377;48.540;9.268;2023-04-15T09:29:08;9.10;;;4.43;;
2644;SDS011;15377;48.540;9.268;2023-04-15T09:31:34;8.83;;;4.30;;
2644;SDS011;15377;48.540;9.268;2023-04-15T09:34:01;9.83;;;3.97;;
2644;SDS011;15377;48.540;9.268;2023-04-15T09:36:26;8.70;;;3.20;;
2644;SDS011;15377;48.540;9.268;2023-04-15T09:41:21;7.33;;;2.90;;
2644;SDS011;15377;48.540;9.268;2023-04-15T09:43:47;7.93;;;3.67;;
2644;SDS011;15377;48.540;9.268;2023-04-15T09:46:12;8.70;;;3.27;;
2644;SDS011;15377;48.540;9.268;2023-04-15T09:48:38;7.50;;;3.20;;
2644;SDS011;15377;48.540;9.268;2023-04-15T09:51:03;6.27;;;2.90;;
2644;SDS011;15377;48.540;9.268;2023-04-15T09:53:29;6.23;;;2.57;;
2644;SDS011;15377;48.540;9.268;2023-04-15T09:55:58;7.10;;;2.97;;
2644;SDS011;15377;48.540;9.268;2023-04-15T09:58:28;10.40;;;3.20;;
2644;SDS011;15377;48.540;9.268;2023-04-15T10:00:55;6.83;;;3.60;;
2644;SDS011;15377;48.540;9.268;2023-04-15T10:03:23;6.53;;;3.47;;
2644;SDS011;15377;48.540;9.268;2023-04-15T10:05:52;6.70;;;3.30;;
2644;SDS011;15377;48.540;9.268;2023-04-15T10:08:20;7.60;;;3.00;;
2644;SDS011;15377;48.540;9.268;2023-04-15T10:10:48;8.20;;;3.33;;
2644;SDS011;15377;48.540;9.268;2023-04-15T10:13:13;8.53;;;3.37;;
2644;SDS011;15377;48.540;9.268;2023-04-15T10:15:43;7.63;;;3.27;;
2644;SDS011;15377;48.540;9.268;2023-04-15T10:18:11;7.33;;;3.10;;
2644;SDS011;15377;48.540;9.268;2023-04-15T10:20:40;7.33;;;3.93;;
2644;SDS011;15377;48.540;9.268;2023-04-15T10:23:07;6.53;;;2.90;;
2644;SDS011;15377;48.540;9.268;2023-04-15T10:25:33;8.00;;;3.23;;
2644;SDS011;15377;48.540;9.268;2023-04-15T10:28:00;7.13;;;3.20;;
2644;SDS011;15377;48.540;9.268;2023-04-15T10:30:26;7.73;;;3.10;;
2644;SDS011;15377;48.540;9.268;2023-04-15T10:32:52;7.13;;;3.40;;
2644;SDS011;15377;48.540;9.268;2023-04-15T10:35:19;9.27;;;3.40;;
2644;SDS011;15377;48.540;9.268;2023-04-15T10:37:46;11.73;;;4.07;;
2644;SDS011;15377;48.540;9.268;2023-04-15T10:40:24;9.40;;;3.97;;
2644;SDS011;15377;48.540;9.268;2023-04-15T10:42:57;9.63;;;3.63;;
2644;SDS011;15377;48.540;9.268;2023-04-15T10:45:25;11.30;;;4.17;;
2644;SDS011;15377;48.540;9.268;2023-04-15T10:47:55;10.23;;;4.30;;
2644;SDS011;15377;48.540;9.268;2023-04-15T10:50:29;9.63;;;3.73;;
2644;SDS011;15377;48.540;9.268;2023-04-15T10:52:55;9.20;;;4.40;;
2644;SDS011;15377;48.540;9.268;2023-04-15T10:55:25;7.63;;;4.17;;
2644;SDS011;15377;48.540;9.268;2023-04-15T10:57:59;8.80;;;3.90;;
2644;SDS011;15377;48.540;9.268;2023-04-15T11:00:30;7.33;;;3.70;;
2644;SDS011;15377;48.540;9.268;2023-04-15T11:02:58;8.13;;;3.90;;
2644;SDS011;15377;48.540;9.268;2023-04-15T11:05:48;13.33;;;4.30;;
2644;SDS011;15377;48.540;9.268;2023-04-15T11:08:17;7.17;;;3.33;;
2644;SDS011;15377;48.540;9.268;2023-04-15T11:15:34;7.50;;;3.83;;
2644;SDS011;15377;48.540;9.268;2023-04-15T11:18:10;7.97;;;3.80;;
2644;SDS011;15377;48.540;9.268;2023-04-15T11:20:38;7.90;;;3.67;;
2644;SDS011;15377;48.540;9.268;2023-04-15T11:23:04;11.00;;;4.33;;
2644;SDS011;15377;48.540;9.268;2023-04-15T11:25:31;8.47;;;3.70;;
2644;SDS011;15377;48.540;9.268;2023-04-15T11:27:58;10.50;;;4.20;;
2644;SDS011;15377;48.540;9.268;2023-04-15T11:30:25;10.63;;;4.87;;
2644;SDS011;15377;48.540;9.268;2023-04-15T11:32:56;7.80;;;3.90;;
2644;SDS011;15377;48.540;9.268;2023-04-15T11:35:23;8.17;;;3.70;;
2644;SDS011;15377;48.540;9.268;2023-04-15T11:37:49;10.03;;;3.50;;
2644;SDS011;15377;48.540;9.268;2023-04-15T11:40:15;7.30;;;3.13;;
2644;SDS011;15377;48.540;9.268;2023-04-15T11:42:44;9.53;;;3.13;;
2644;SDS011;15377;48.540;9.268;2023-04-15T11:45:10;9.30;;;3.60;;
2644;SDS011;15377;48.540;9.268;2023-04-15T11:47:37;8.07;;;3.70;;
2644;SDS011;15377;48.540;9.268;2023-04-15T11:50:13;7.97;;;3.20;;
2644;SDS011;15377;48.540;9.268;2023-04-15T11:52:54;9.97;;;3.73;;
2644;SDS011;15377;48.540;9.268;2023-04-15T11:55:20;12.30;;;3.30;;
2644;SDS011;15377;48.540;9.268;2023-04-15T11:57:47;7.10;;;3.00;;
2644;SDS011;15377;48.540;9.268;2023-04-15T12:00:15;6.63;;;2.63;;
2644;SDS011;15377;48.540;9.268;2023-04-15T12:02:41;5.97;;;3.10;;
2644;SDS011;15377;48.540;9.268;2023-04-15T12:05:07;9.80;;;4.00;;
2644;SDS011;15377;48.540;9.268;2023-04-15T12:08:19;8.20;;;3.90;;
2644;SDS011;15377;48.540;9.268;2023-04-15T12:10:23;8.47;;;4.23;;
2644;SDS011;15377;48.540;9.268;2023-04-15T12:12:51;8.40;;;3.87;;
2644;SDS011;15377;48.540;9.268;2023-04-15T12:15:20;9.47;;;4.23;;
2644;SDS011;15377;48.540;9.268;2023-04-15T12:17:46;7.77;;;3.80;;
2644;SDS011;15377;48.540;9.268;2023-04-15T12:20:12;9.87;;;4.30;;
2644;SDS011;15377;48.540;9.268;2023-04-15T12:22:37;8.87;;;4.10;;
2644;SDS011;15377;48.540;9.268;2023-04-15T12:25:03;9.53;;;4.20;;
2644;SDS011;15377;48.540;9.268;2023-04-15T12:27:30;7.60;;;3.60;;
2644;SDS011;15377;48.540;9.268;2023-04-15T12:30:05;8.47;;;3.87;;
2644;SDS011;15377;48.540;9.268;2023-04-15T12:32:34;13.10;;;4.53;;
2644;SDS011;15377;48.540;9.268;2023-04-15T12:35:00;9.03;;;4.30;;
2644;SDS011;15377;48.540;9.268;2023-04-15T12:37:25;8.00;;;3.97;;
2644;SDS011;15377;48.540;9.268;2023-04-15T12:39:51;8.23;;;4.30;;
2644;SDS011;15377;48.540;9.268;2023-04-15T12:42:18;7.97;;;4.87;;
2644;SDS011;15377;48.540;9.268;2023-04-15T12:44:44;7.60;;;3.83;;
2644;SDS011;15377;48.540;9.268;2023-04-15T12:47:10;10.50;;;4.37;;
2644;SDS011;15377;48.540;9.268;2023-04-15T12:49:36;8.80;;;4.07;;
2644;SDS011;15377;48.540;9.268;2023-04-15T12:52:02;10.23;;;4.80;;
2644;SDS011;15377;48.540;9.268;2023-04-15T12:54:28;8.90;;;4.20;;
2644;SDS011;15377;48.540;9.268;2023-04-15T12:56:54;7.50;;;4.10;;
2644;SDS011;15377;48.540;9.268;2023-04-15T12:59:20;8.20;;;3.63;;
2644;SDS011;15377;48.540;9.268;2023-04-15T13:01:47;7.17;;;3.33;;
2644;SDS011;15377;48.540;9.268;2023-04-15T13:04:14;8.10;;;3.33;;
2644;SDS011;15377;48.540;9.268;2023-04-15T13:06:43;7.37;;;3.60;;
2644;SDS011;15377;48.540;9.268;2023-04-15T13:09:08;7.37;;;3.60;;
2644;SDS011;15377;48.540;9.268;2023-04-15T13:11:34;7.70;;;3.50;;
2644;SDS011;15377;48.540;9.268;2023-04-15T13:14:00;7.60;;;3.97;;
2644;SDS011;15377;48.540;9.268;2023-04-15T13:16:27;7.47;;;5.10;;
2644;SDS011;15377;48.540;9.268;2023-04-15T13:18:52;8.40;;;4.67;;
2644;SDS011;15377;48.540;9.268;2023-04-15T13:21:18;7.80;;;4.83;;
2644;SDS011;15377;48.540;9.268;2023-04-15T13:23:43;9.77;;;5.47;;
2644;SDS011;15377;48.540;9.268;2023-04-15T13:26:09;7.63;;;4.50;;
2644;SDS011;15377;48.540;9.268;2023-04-15T13:28:35;9.07;;;5.20;;
2644;SDS011;15377;48.540;9.268;2023-04-15T13:31:01;7.27;;;4.67;;
2644;SDS011;15377;48.540;9.268;2023-04-15T13:33:26;8.10;;;4.43;;
2644;SDS011;15377;48.540;9.268;2023-04-15T13:35:52;8.00;;;4.67;;
2644;SDS011;15377;48.540;9.268;2023-04-15T13:38:18;9.63;;;5.10;;
2644;SDS011;15377;48.540;9.268;2023-04-15T13:40:43;8.97;;;4.60;;
2644;SDS011;15377;48.540;9.268;2023-04-15T13:43:09;8.47;;;4.40;;
2644;SDS011;15377;48.540;9.268;2023-04-15T13:45:34;14.30;;;5.20;;
2644;SDS011;15377;48.540;9.268;2023-04-15T13:47:59;9.83;;;4.70;;
2644;SDS011;15377;48.540;9.268;2023-04-15T13:50:25;8.37;;;4.50;;
2644;SDS011;15377;48.540;9.268;2023-04-15T13:52:50;7.60;;;4.40;;
2644;SDS011;15377;48.540;9.268;2023-04-15T13:55:16;8.47;;;4.53;;
2644;SDS011;15377;48.540;9.268;2023-04-15T13:57:41;9.63;;;4.33;;
2644;SDS011;15377;48.540;9.268;2023-04-15T14:00:07;7.60;;;3.93;;
2644;SDS011;15377;48.540;9.268;2023-04-15T14:02:33;9.20;;;4.37;;
2644;SDS011;15377;48.540;9.268;2023-04-15T14:04:58;7.10;;;4.73;;
2644;SDS011;15377;48.540;9.268;2023-04-15T14:07:23;10.10;;;4.13;;
2644;SDS011;15377;48.540;9.268;2023-04-15T14:09:49;6.60;;;3.60;;
2644;SDS011;15377;48.540;9.268;2023-04-15T14:12:14;8.30;;;3.87;;
2644;SDS011;15377;48.540;9.268;2023-04-15T14:14:40;8.77;;;4.40;;
2644;SDS011;15377;48.540;9.268;2023-04-15T14:17:05;7.93;;;3.90;;
2644;SDS011;15377;48.540;9.268;2023-04-15T14:19:31;9.27;;;4.10;;
2644;SDS011;15377;48.540;9.268;2023-04-15T14:21:56;7.90;;;3.60;;
2644;SDS011;15377;48.540;9.268;2023-04-15T14:24:23;7.70;;;3.57;;
2644;SDS011;15377;48.540;9.268;2023-04-15T14:26:48;11.60;;;3.53;;
2644;SDS011;15377;48.540;9.268;2023-04-15T14:29:13;6.93;;;3.30;;
2644;SDS011;15377;48.540;9.268;2023-04-15T14:31:39;7.70;;;3.80;;
2644;SDS011;15377;48.540;9.268;2023-04-15T14:34:04;7.43;;;3.73;;
2644;SDS011;15377;48.540;9.268;2023-04-15T14:36:30;7.10;;;3.40;;
2644;SDS011;15377;48.540;9.268;2023-04-15T14:38:56;6.90;;;3.20;;
2644;SDS011;15377;48.540;9.268;2023-04-15T14:41:21;6.90;;;3.60;;
2644;SDS011;15377;48.540;9.268;2023-04-15T14:43:47;7.13;;;3.37;;
2644;SDS011;15377;48.540;9.268;2023-04-15T14:46:12;7.77;;;3.67;;
2644;SDS011;15377;48.540;9.268;2023-04-15T14:48:38;7.60;;;3.47;;
2644;SDS011;15377;48.540;9.268;2023-04-15T14:51:03;7.50;;;3.50;;
2644;SDS011;15377;48.540;9.268;2023-04-15T14:53:29;9.27;;;3.20;;
2644;SDS011;15377;48.540;9.268;2023-04-15T14:55:55;7.40;;;3.17;;
2644;SDS011;15377;48.540;9.268;2023-04-15T14:58:20;6.77;;;3.37;;